Time;durP1;ratioP1;P1;durP2;ratioP2;P2;SDS_P1;SDS_P2;PMS_P1;PMS_P2;Temp;Humidity;BMP_temperature;BMP_pressure;BME280_temperature;BME280_humidity;BME280_pressure;Samples;Min_cycle;Max_cycle;Signal;HPM_P1;HPM_P2
2023/03/09 00:01:38;;;;;;;14.32;7.35;;;20.20;61.30;;;;;;4997061;28;20037;-88
2023/03/09 00:04:04;;;;;;;10.77;6.65;;;20.20;61.40;;;;;;5009784;28;20033;-85
2023/03/09 00:06:30;;;;;;;10.57;6.55;;;20.20;61.40;;;;;;5028541;28;20036;-87
2023/03/09 00:08:56;;;;;;;14.27;7.80;;;20.20;61.40;;;;;;4997791;28;20033;-81
2023/03/09 00:11:24;;;;;;;12.75;7.38;;;20.20;61.60;;;;;;5028550;28;20128;-83
2023/03/09 00:13:50;;;;;;;18.30;7.22;;;20.20;61.50;;;;;;4994846;28;20040;-81
2023/03/09 00:16:26;;;;;;;13.68;7.30;;;20.20;61.40;;;;;;5012099;28;20418;-83
2023/03/09 00:18:54;;;;;;;12.32;6.85;;;20.20;61.60;;;;;;5013754;28;20040;-88
2023/03/09 00:21:36;;;;;;;12.57;6.63;;;20.20;61.70;;;;;;4994775;28;20033;-88
2023/03/09 00:24:09;;;;;;;16.00;7.18;;;20.20;61.70;;;;;;4993196;28;20038;-88
2023/03/09 00:26:38;;;;;;;10.15;6.30;;;20.20;61.70;;;;;;5010427;28;20038;-86
2023/03/09 00:29:10;;;;;;;10.70;6.73;;;20.20;61.70;;;;;;4997244;28;20041;-83
2023/03/09 00:31:35;;;;;;;12.25;6.70;;;20.20;61.70;;;;;;5030290;28;20269;-84
2023/03/09 00:34:03;;;;;;;11.48;6.70;;;20.20;61.70;;;;;;4998701;28;20296;-83
2023/03/09 00:36:29;;;;;;;11.95;6.50;;;20.20;61.70;;;;;;5015004;28;20145;-88
2023/03/09 00:38:58;;;;;;;13.23;6.75;;;20.20;61.70;;;;;;4998819;28;20037;-89
2023/03/09 00:41:30;;;;;;;14.98;6.80;;;20.20;61.70;;;;;;5014126;28;20124;-86
2023/03/09 00:43:57;;;;;;;14.65;6.57;;;20.20;62.40;;;;;;5014078;28;20378;-80
2023/03/09 00:46:23;;;;;;;15.15;6.55;;;20.20;62.30;;;;;;5012829;28;20036;-84
2023/03/09 00:48:49;;;;;;;16.77;6.57;;;20.20;62.10;;;;;;5010894;28;20128;-80
2023/03/09 00:51:15;;;;;;;13.20;6.93;;;20.30;62.00;;;;;;5028976;28;20068;-89
2023/03/09 00:53:41;;;;;;;20.27;6.22;;;20.30;62.00;;;;;;5014624;28;20033;-89
2023/03/09 00:56:12;;;;;;;19.98;6.55;;;20.30;61.90;;;;;;5013482;28;20432;-91
2023/03/09 00:58:38;;;;;;;25.17;6.93;;;20.20;61.70;;;;;;4990381;28;20042;-88
2023/03/09 01:01:09;;;;;;;15.02;6.97;;;20.20;61.80;;;;;;4998345;28;20043;-91
2023/03/09 01:03:36;;;;;;;11.32;5.78;;;20.20;61.90;;;;;;5014157;28;20465;-88
2023/03/09 01:06:03;;;;;;;18.02;6.30;;;20.20;61.80;;;;;;4994545;28;20059;-89
2023/03/09 01:08:30;;;;;;;15.35;5.95;;;20.20;62.00;;;;;;5011801;28;20136;-89
2023/03/09 01:10:56;;;;;;;10.65;6.13;;;20.20;62.00;;;;;;5015167;28;20473;-90
2023/03/09 01:13:23;;;;;;;15.82;6.20;;;20.20;61.80;;;;;;5002784;28;20022;-90
2023/03/09 01:15:54;;;;;;;17.55;6.07;;;20.20;61.60;;;;;;5001599;28;20033;-88
2023/03/09 01:18:20;;;;;;;12.38;6.10;;;20.10;61.80;;;;;;5017204;28;20025;-89
2023/03/09 01:20:45;;;;;;;15.73;6.22;;;20.10;61.60;;;;;;5016928;28;20426;-88
2023/03/09 01:23:11;;;;;;;11.40;6.90;;;20.10;61.80;;;;;;5016438;28;20030;-87
2023/03/09 01:25:37;;;;;;;11.68;6.20;;;20.10;62.50;;;;;;5025281;28;20029;-87
2023/03/09 01:28:05;;;;;;;9.18;5.70;;;20.10;62.00;;;;;;5000089;28;20031;-87
2023/03/09 01:30:31;;;;;;;13.45;5.60;;;20.10;62.10;;;;;;5000867;28;20079;-87
2023/03/09 01:32:57;;;;;;;13.68;5.82;;;20.20;62.10;;;;;;5000539;28;20026;-88
2023/03/09 01:35:23;;;;;;;13.50;5.88;;;20.10;61.90;;;;;;5017707;28;20091;-88
2023/03/09 01:37:52;;;;;;;11.70;5.95;;;20.10;61.70;;;;;;5013562;28;20394;-88
2023/03/09 01:40:22;;;;;;;8.63;5.77;;;20.10;61.70;;;;;;5031834;28;20036;-88
2023/03/09 01:43:00;;;;;;;10.45;5.82;;;20.10;61.60;;;;;;5016752;28;20284;-89
2023/03/09 01:45:28;;;;;;;11.52;6.45;;;20.10;62.00;;;;;;5001411;28;20029;-89
2023/03/09 01:47:57;;;;;;;12.13;5.75;;;20.10;61.90;;;;;;5001382;28;20037;-88
2023/03/09 01:50:35;;;;;;;11.90;6.15;;;20.10;62.20;;;;;;5016381;28;20037;-89
2023/03/09 01:53:10;;;;;;;9.98;5.40;;;20.10;62.00;;;;;;5001284;28;20044;-89
2023/03/09 01:55:42;;;;;;;11.45;5.97;;;20.10;62.20;;;;;;5017564;28;20065;-88
2023/03/09 01:58:19;;;;;;;10.70;5.72;;;20.10;61.90;;;;;;5001475;28;20054;-88
2023/03/09 02:00:50;;;;;;;10.52;5.70;;;20.10;62.00;;;;;;5000991;28;20084;-87
2023/03/09 02:03:21;;;;;;;11.25;5.53;;;20.10;62.10;;;;;;5000147;28;20029;-86
2023/03/09 02:05:56;;;;;;;12.90;5.65;;;20.20;62.00;;;;;;5015586;28;20087;-87
2023/03/09 02:08:24;;;;;;;9.57;5.47;;;20.20;62.10;;;;;;4999324;28;20025;-85
2023/03/09 02:11:04;;;;;;;8.30;4.85;;;20.20;61.90;;;;;;5001197;28;20040;-85
2023/03/09 02:13:37;;;;;;;12.57;5.35;;;20.10;62.00;;;;;;4999012;28;20026;-85
2023/03/09 02:16:04;;;;;;;9.13;5.40;;;20.20;61.90;;;;;;5030792;28;20030;-86
2023/03/09 02:18:32;;;;;;;11.05;5.68;;;20.10;61.90;;;;;;4999100;28;20056;-84
2023/03/09 02:21:14;;;;;;;8.93;5.18;;;20.10;62.70;;;;;;5015757;28;20065;-82
2023/03/09 02:24:00;;;;;;;10.02;5.43;;;20.10;61.90;;;;;;5013869;28;20064;-83
2023/03/09 02:26:39;;;;;;;12.65;6.22;;;20.10;62.10;;;;;;4998874;28;20125;-81
2023/03/09 02:29:05;;;;;;;;;;;20.10;62.40;;;;;;4999612;28;20080;-84
2023/03/09 02:31:43;;;;;;;11.35;5.68;;;20.10;62.40;;;;;;5015436;28;19913;-87
2023/03/09 02:34:11;;;;;;;9.52;4.85;;;20.10;62.50;;;;;;5064854;28;20056;-77
2023/03/09 02:36:39;;;;;;;8.90;4.75;;;20.10;62.40;;;;;;5037519;28;20021;-77
2023/03/09 02:39:18;;;;;;;9.35;5.32;;;20.10;62.40;;;;;;5028709;28;20032;-77
2023/03/09 02:41:44;;;;;;;10.00;5.30;;;20.10;62.50;;;;;;5047773;28;20480;-76
2023/03/09 02:44:13;;;;;;;11.30;5.75;;;20.10;62.30;;;;;;5057106;28;20031;-77
2023/03/09 02:46:39;;;;;;;10.00;5.07;;;20.10;62.50;;;;;;5042033;28;20116;-76
2023/03/09 02:49:05;;;;;;;8.52;5.20;;;20.10;62.30;;;;;;5051115;28;20104;-77
2023/03/09 02:51:31;;;;;;;10.40;5.55;;;20.10;62.50;;;;;;5047300;28;20025;-78
2023/03/09 02:53:57;;;;;;;11.07;5.70;;;20.10;62.70;;;;;;5043075;28;20035;-77
2023/03/09 02:56:23;;;;;;;10.10;5.75;;;20.10;62.30;;;;;;5060339;28;20101;-77
2023/03/09 02:58:50;;;;;;;9.10;5.20;;;20.10;62.80;;;;;;5060832;28;20032;-77
2023/03/09 03:01:17;;;;;;;9.43;5.22;;;20.10;62.70;;;;;;5058611;28;20033;-76
2023/03/09 03:03:42;;;;;;;8.23;5.25;;;20.10;62.70;;;;;;5038177;28;20089;-76
2023/03/09 03:06:08;;;;;;;8.38;5.20;;;20.10;62.80;;;;;;5072271;28;20028;-76
2023/03/09 03:08:35;;;;;;;10.65;5.10;;;20.20;62.60;;;;;;5041095;28;20028;-76
2023/03/09 03:11:01;;;;;;;9.07;4.88;;;20.10;62.60;;;;;;5034358;28;20025;-77
2023/03/09 03:13:28;;;;;;;7.43;4.75;;;20.20;62.70;;;;;;5034291;28;20033;-76
2023/03/09 03:15:59;;;;;;;7.43;5.03;;;20.20;62.80;;;;;;5034320;28;20095;-76
2023/03/09 03:18:24;;;;;;;7.88;4.68;;;20.20;62.80;;;;;;5052065;28;20034;-77
2023/03/09 03:20:50;;;;;;;7.68;4.68;;;20.20;62.70;;;;;;5054604;28;20131;-77
2023/03/09 03:23:17;;;;;;;8.50;4.97;;;20.20;62.90;;;;;;5037725;28;20484;-77
2023/03/09 03:25:48;;;;;;;8.38;4.88;;;20.20;62.80;;;;;;5057728;28;20105;-76
2023/03/09 03:28:15;;;;;;;8.27;4.88;;;20.20;62.80;;;;;;5053459;28;20441;-77
2023/03/09 03:30:41;;;;;;;8.43;5.00;;;20.10;62.50;;;;;;5057882;28;20020;-76
2023/03/09 03:33:07;;;;;;;6.18;4.47;;;20.10;62.90;;;;;;5041389;28;20094;-77
2023/03/09 03:35:34;;;;;;;8.55;4.50;;;20.10;62.80;;;;;;5057702;28;20033;-77
2023/03/09 03:38:00;;;;;;;7.32;4.63;;;20.10;62.90;;;;;;5070865;28;20039;-77
2023/03/09 03:40:27;;;;;;;8.85;4.80;;;20.10;62.80;;;;;;5038136;28;20035;-77
2023/03/09 03:42:56;;;;;;;8.30;4.35;;;20.10;62.90;;;;;;5059047;28;20025;-77
2023/03/09 03:45:22;;;;;;;7.32;4.72;;;20.10;63.00;;;;;;5053326;28;20062;-77
2023/03/09 03:47:49;;;;;;;8.27;4.70;;;20.10;63.00;;;;;;5054106;28;20124;-77
2023/03/09 03:50:15;;;;;;;8.38;4.57;;;20.10;62.90;;;;;;5053979;28;20542;-77
2023/03/09 03:52:49;;;;;;;7.35;4.82;;;20.10;63.10;;;;;;5054079;28;20029;-77
2023/03/09 03:55:14;;;;;;;7.65;4.90;;;20.10;62.40;;;;;;5070697;28;20391;-78
2023/03/09 03:57:41;;;;;;;8.00;4.80;;;20.10;63.00;;;;;;5052592;28;20111;-78
2023/03/09 04:00:10;;;;;;;8.10;4.70;;;20.10;62.90;;;;;;5058986;28;20107;-78
2023/03/09 04:02:40;;;;;;;6.93;4.40;;;20.10;63.30;;;;;;5068370;28;20027;-77
2023/03/09 04:05:12;;;;;;;7.35;5.10;;;20.10;63.30;;;;;;5056192;28;20040;-77
2023/03/09 04:07:41;;;;;;;8.30;4.90;;;20.10;63.00;;;;;;5028560;28;20047;-78
2023/03/09 04:10:09;;;;;;;12.80;5.00;;;20.10;63.60;;;;;;5052714;28;20031;-77
2023/03/09 04:12:39;;;;;;;11.80;5.07;;;20.10;63.40;;;;;;5054546;28;20035;-77
2023/03/09 04:15:06;;;;;;;7.70;4.72;;;20.10;63.50;;;;;;5057445;28;20037;-77
2023/03/09 04:17:32;;;;;;;8.88;4.50;;;20.20;63.70;;;;;;5038816;28;20060;-77
2023/03/09 04:19:58;;;;;;;8.27;4.68;;;20.10;63.10;;;;;;5052776;28;20071;-78
2023/03/09 04:22:24;;;;;;;8.52;4.32;;;20.10;63.50;;;;;;5052733;28;20381;-78
2023/03/09 04:24:50;;;;;;;7.43;4.65;;;20.10;63.30;;;;;;5059156;28;20062;-77
2023/03/09 04:27:17;;;;;;;9.23;4.57;;;20.10;63.40;;;;;;5061093;28;20081;-78
2023/03/09 04:29:54;;;;;;;6.97;4.43;;;20.10;63.60;;;;;;5054254;28;20051;-78
2023/03/09 04:32:23;;;;;;;12.13;4.60;;;20.10;63.40;;;;;;5056186;28;20163;-78
2023/03/09 04:34:54;;;;;;;8.00;4.93;;;20.10;63.30;;;;;;5058548;28;20112;-78
2023/03/09 04:37:20;;;;;;;15.10;4.47;;;20.10;63.40;;;;;;5058485;28;20119;-78
2023/03/09 04:39:48;;;;;;;9.10;4.43;;;20.10;63.40;;;;;;5054045;28;20396;-77
2023/03/09 04:42:14;;;;;;;9.75;4.05;;;20.20;63.50;;;;;;5058650;28;20024;-77
2023/03/09 04:44:40;;;;;;;9.88;4.57;;;20.10;63.80;;;;;;5063369;28;20099;-77
2023/03/09 04:47:12;;;;;;;10.25;4.85;;;20.10;63.60;;;;;;5058184;28;20052;-77
2023/03/09 04:49:38;;;;;;;11.35;4.70;;;20.10;63.70;;;;;;5033683;28;20430;-77
2023/03/09 04:52:04;;;;;;;10.20;4.22;;;20.10;63.30;;;;;;5048392;28;20027;-77
2023/03/09 04:54:30;;;;;;;11.45;4.70;;;20.10;63.70;;;;;;5064852;28;20020;-77
2023/03/09 04:56:56;;;;;;;8.77;4.85;;;20.10;64.10;;;;;;5059960;28;20115;-77
2023/03/09 04:59:24;;;;;;;14.82;4.25;;;20.10;63.30;;;;;;5067303;28;20083;-77
2023/03/09 05:01:50;;;;;;;9.93;4.63;;;20.10;63.60;;;;;;5060350;28;20214;-77
2023/03/09 05:04:21;;;;;;;10.45;4.72;;;20.10;63.70;;;;;;5060651;28;20541;-77
2023/03/09 05:06:52;;;;;;;11.77;4.72;;;20.10;63.50;;;;;;5064987;28;20089;-77
2023/03/09 05:09:19;;;;;;;7.70;4.30;;;20.10;63.70;;;;;;5051884;28;20029;-77
2023/03/09 05:11:51;;;;;;;8.10;4.50;;;20.10;63.80;;;;;;5064401;28;20051;-77
2023/03/09 05:14:19;;;;;;;7.50;4.50;;;20.10;63.80;;;;;;5067903;28;20036;-77
2023/03/09 05:16:48;;;;;;;10.05;4.47;;;20.10;63.70;;;;;;5059342;28;20039;-77
2023/03/09 05:19:14;;;;;;;6.50;4.28;;;20.20;63.60;;;;;;5064904;28;20396;-77
2023/03/09 05:21:41;;;;;;;7.30;4.25;;;20.10;63.80;;;;;;5059853;28;20040;-77
2023/03/09 05:24:10;;;;;;;7.70;4.57;;;20.10;63.90;;;;;;5064536;28;20032;-77
2023/03/09 05:26:36;;;;;;;10.95;4.53;;;20.20;63.80;;;;;;5063899;28;20032;-77
2023/03/09 05:29:04;;;;;;;7.65;4.25;;;20.20;63.60;;;;;;5056082;28;20440;-78
2023/03/09 05:31:34;;;;;;;7.75;4.25;;;20.10;64.10;;;;;;5044189;28;20028;-77
2023/03/09 05:34:00;;;;;;;6.40;4.10;;;20.10;64.10;;;;;;5059863;28;20480;-77
2023/03/09 05:36:26;;;;;;;8.27;4.28;;;20.10;64.20;;;;;;5062876;28;20048;-77
2023/03/09 05:38:55;;;;;;;7.95;4.60;;;20.10;64.50;;;;;;5039488;28;20064;-78
2023/03/09 05:41:21;;;;;;;9.70;4.78;;;20.10;64.40;;;;;;5062564;28;20025;-78
2023/03/09 05:43:53;;;;;;;8.82;4.65;;;20.10;64.30;;;;;;5057067;28;20064;-78
2023/03/09 05:46:18;;;;;;;7.63;4.40;;;20.10;64.40;;;;;;5061705;28;20391;-78
2023/03/09 05:48:47;;;;;;;7.30;4.20;;;20.10;64.40;;;;;;5038726;28;20044;-78
2023/03/09 05:51:13;;;;;;;7.47;4.50;;;20.10;64.30;;;;;;5060098;28;20039;-78
2023/03/09 05:53:39;;;;;;;7.88;4.20;;;20.10;64.30;;;;;;5059665;28;20484;-79
2023/03/09 05:56:07;;;;;;;7.65;4.32;;;20.10;64.00;;;;;;5055476;28;20369;-78
2023/03/09 05:58:33;;;;;;;8.48;4.40;;;20.10;64.10;;;;;;5053972;28;20025;-79
2023/03/09 06:01:01;;;;;;;9.20;4.30;;;20.10;64.30;;;;;;5057752;28;20480;-79
2023/03/09 06:03:28;;;;;;;9.20;4.45;;;20.10;64.40;;;;;;5060903;28;20422;-77
2023/03/09 06:06:03;;;;;;;7.38;4.25;;;20.10;64.40;;;;;;5046669;28;20033;-77
2023/03/09 06:08:32;;;;;;;10.25;4.13;;;20.10;64.70;;;;;;5059304;28;20285;-77
2023/03/09 06:11:01;;;;;;;6.47;4.17;;;20.10;65.00;;;;;;5058628;28;20028;-77
2023/03/09 06:13:28;;;;;;;7.60;4.07;;;20.10;64.60;;;;;;5054370;28;20473;-77
2023/03/09 06:15:55;;;;;;;6.60;4.05;;;20.10;64.40;;;;;;5034167;28;20029;-77
2023/03/09 06:18:21;;;;;;;8.25;4.30;;;20.10;64.30;;;;;;5061310;28;20507;-78
2023/03/09 06:20:48;;;;;;;7.45;4.35;;;20.10;64.30;;;;;;5035517;28;20039;-78
2023/03/09 06:23:14;;;;;;;11.52;4.43;;;20.10;64.40;;;;;;5068148;28;20028;-78
2023/03/09 06:25:41;;;;;;;7.78;4.43;;;20.20;64.30;;;;;;5058709;28;20025;-78
2023/03/09 06:28:09;;;;;;;6.05;4.13;;;20.20;64.30;;;;;;5058379;28;20037;-77
2023/03/09 06:30:40;;;;;;;10.57;4.82;;;20.20;64.20;;;;;;5046207;28;20051;-77
2023/03/09 06:33:08;;;;;;;7.05;4.47;;;20.10;64.40;;;;;;5034588;28;20032;-77
2023/03/09 06:35:37;;;;;;;8.17;4.33;;;20.10;64.50;;;;;;5054625;28;20032;-77
2023/03/09 06:38:06;;;;;;;7.95;4.45;;;20.10;64.40;;;;;;5059003;28;20476;-77
2023/03/09 06:40:32;;;;;;;6.45;4.13;;;20.10;64.40;;;;;;5054721;28;20032;-77
2023/03/09 06:42:59;;;;;;;8.13;4.32;;;20.10;65.00;;;;;;5054052;28;20439;-77
2023/03/09 06:45:25;;;;;;;11.57;4.30;;;20.10;64.60;;;;;;5058717;28;20028;-76
2023/03/09 06:47:56;;;;;;;7.40;3.90;;;20.10;64.50;;;;;;5054097;28;20563;-77
2023/03/09 06:50:24;;;;;;;11.68;4.50;;;20.20;64.60;;;;;;5038036;28;20376;-77
2023/03/09 06:52:52;;;;;;;10.05;4.45;;;20.20;65.00;;;;;;5049203;28;20020;-78
2023/03/09 06:55:19;;;;;;;8.07;4.13;;;20.20;65.10;;;;;;5054225;28;20051;-78
2023/03/09 06:57:50;;;;;;;12.25;4.72;;;20.20;65.10;;;;;;5052848;28;20435;-77
2023/03/09 07:00:16;;;;;;;8.23;4.55;;;20.20;65.00;;;;;;5070934;28;20033;-77
2023/03/09 07:02:44;;;;;;;11.57;4.20;;;20.20;64.90;;;;;;5038148;28;20037;-78
2023/03/09 07:05:10;;;;;;;10.98;4.25;;;20.20;65.20;;;;;;5055022;28;20032;-77
2023/03/09 07:07:36;;;;;;;11.45;4.40;;;20.20;65.00;;;;;;5053265;28;20070;-80
2023/03/09 07:10:06;;;;;;;12.40;4.18;;;20.20;65.10;;;;;;5057480;28;20029;-77
2023/03/09 07:12:32;;;;;;;16.65;4.20;;;20.20;65.20;;;;;;5034953;28;20147;-79
2023/03/09 07:14:58;;;;;;;12.35;5.35;;;20.20;65.20;;;;;;5057531;28;20439;-78
2023/03/09 07:17:24;;;;;;;8.60;4.20;;;20.20;65.30;;;;;;5056135;28;20031;-77
2023/03/09 07:19:51;;;;;;;10.50;5.05;;;20.20;65.40;;;;;;5071708;28;20048;-78
2023/03/09 07:22:18;;;;;;;20.63;5.45;;;20.20;65.50;;;;;;5071510;28;20127;-77
2023/03/09 07:24:44;;;;;;;21.52;4.85;;;20.20;65.20;;;;;;5070562;28;20028;-78
2023/03/09 07:27:09;;;;;;;19.90;5.60;;;20.20;65.20;;;;;;5071853;28;20090;-77
2023/03/09 07:29:35;;;;;;;25.77;6.60;;;20.20;64.90;;;;;;5072031;28;20036;-74
2023/03/09 07:32:02;;;;;;;17.52;7.50;;;20.20;62.90;;;;;;5071719;28;20075;-78
2023/03/09 07:34:29;;;;;;;15.65;7.43;;;20.00;59.20;;;;;;5070824;28;20107;-74
2023/03/09 07:36:54;;;;;;;16.95;7.88;;;19.90;59.70;;;;;;5071670;28;20027;-74
2023/03/09 07:39:20;;;;;;;15.20;8.35;;;19.90;58.20;;;;;;5071806;28;20024;-73
2023/03/09 07:41:46;;;;;;;16.63;7.25;;;19.70;58.20;;;;;;5071835;28;20507;-74
2023/03/09 07:44:12;;;;;;;14.13;7.32;;;19.60;56.60;;;;;;5071550;28;20063;-76
2023/03/09 07:46:37;;;;;;;16.90;9.60;;;19.50;55.40;;;;;;5071663;28;20495;-76
2023/03/09 07:49:04;;;;;;;17.20;7.38;;;19.60;56.00;;;;;;5071372;28;20020;-76
2023/03/09 07:51:29;;;;;;;12.13;7.25;;;19.70;56.50;;;;;;5070659;28;20483;-76
2023/03/09 07:53:55;;;;;;;24.88;7.70;;;19.70;57.10;;;;;;5071570;28;20056;-77
2023/03/09 07:56:21;;;;;;;18.45;8.38;;;19.80;57.60;;;;;;5071556;28;20109;-77
2023/03/09 07:58:47;;;;;;;13.50;6.95;;;19.80;58.00;;;;;;5071510;28;20025;-77
2023/03/09 08:01:16;;;;;;;13.90;6.72;;;19.90;58.20;;;;;;5070483;28;20023;-77
2023/03/09 08:03:43;;;;;;;14.15;5.97;;;19.90;59.00;;;;;;5071559;28;20036;-76
2023/03/09 08:06:09;;;;;;;12.05;6.03;;;19.90;58.80;;;;;;5070060;28;20078;-77
2023/03/09 08:08:36;;;;;;;13.70;6.53;;;20.00;58.80;;;;;;5070864;28;20017;-77
2023/03/09 08:11:03;;;;;;;13.57;6.00;;;19.90;59.60;;;;;;5070272;28;20029;-77
2023/03/09 08:13:30;;;;;;;14.70;6.18;;;19.90;59.50;;;;;;5071274;28;20025;-76
2023/03/09 08:15:59;;;;;;;13.10;6.53;;;20.00;59.60;;;;;;5071121;28;20066;-77
2023/03/09 08:18:25;;;;;;;13.93;6.25;;;19.90;59.70;;;;;;5071407;28;20028;-77
2023/03/09 08:20:51;;;;;;;13.65;6.43;;;20.00;59.70;;;;;;5071241;28;20111;-76
2023/03/09 08:23:17;;;;;;;17.20;6.47;;;20.00;59.70;;;;;;5071358;28;20029;-76
2023/03/09 08:25:44;;;;;;;22.75;9.05;;;20.00;59.90;;;;;;5071027;28;20410;-76
2023/03/09 08:28:11;;;;;;;20.08;8.57;;;20.00;60.40;;;;;;5053592;28;20028;-77
2023/03/09 08:30:38;;;;;;;22.17;8.63;;;20.00;60.10;;;;;;5071510;28;20029;-76
2023/03/09 08:33:04;;;;;;;20.95;8.00;;;20.10;60.60;;;;;;5070006;22;20045;-74
2023/03/09 08:35:32;;;;;;;24.33;8.82;;;20.10;61.00;;;;;;5014002;28;20090;-75
2023/03/09 08:37:59;;;;;;;21.95;8.75;;;20.10;60.70;;;;;;5012907;28;20033;-75
2023/03/09 08:40:26;;;;;;;22.13;8.40;;;20.10;60.70;;;;;;5031261;28;20061;-73
2023/03/09 08:42:51;;;;;;;26.15;8.88;;;20.10;60.70;;;;;;5013554;28;20030;-74
2023/03/09 08:45:17;;;;;;;22.98;8.27;;;20.10;60.80;;;;;;5031120;28;20040;-74
2023/03/09 08:47:43;;;;;;;23.92;8.90;;;20.10;60.80;;;;;;5030945;28;20112;-74
2023/03/09 08:50:10;;;;;;;24.48;8.70;;;20.10;60.80;;;;;;5013934;28;20160;-74
2023/03/09 08:52:39;;;;;;;21.92;8.32;;;20.10;60.80;;;;;;5031198;28;20029;-74
2023/03/09 08:55:07;;;;;;;19.90;8.27;;;20.10;60.80;;;;;;5013582;28;20044;-73
2023/03/09 08:57:33;;;;;;;19.88;8.48;;;20.10;60.80;;;;;;5013265;28;20060;-74
2023/03/09 08:59:59;;;;;;;20.10;8.27;;;20.10;60.60;;;;;;5013470;28;20029;-74
2023/03/09 09:02:25;;;;;;;18.80;8.07;;;20.10;60.40;;;;;;5013434;28;20025;-74
2023/03/09 09:04:51;;;;;;;19.45;7.57;;;20.00;60.40;;;;;;5030980;28;20043;-74
2023/03/09 09:07:17;;;;;;;18.15;7.95;;;20.10;60.60;;;;;;5013105;28;20456;-73
2023/03/09 09:09:43;;;;;;;18.98;7.97;;;20.00;60.40;;;;;;5031001;28;20026;-74
2023/03/09 09:12:10;;;;;;;19.58;7.80;;;20.00;60.50;;;;;;5031041;28;20037;-74
2023/03/09 09:14:38;;;;;;;20.38;8.30;;;20.00;60.50;;;;;;5031219;28;20120;-74
2023/03/09 09:17:08;;;;;;;16.48;7.85;;;20.00;60.50;;;;;;5030984;28;20128;-74
2023/03/09 09:19:34;;;;;;;19.48;7.82;;;20.00;61.20;;;;;;5031130;28;20029;-74
2023/03/09 09:22:00;;;;;;;19.83;7.47;;;20.00;60.60;;;;;;5013339;28;20033;-74
2023/03/09 09:24:26;;;;;;;24.55;8.43;;;20.00;60.80;;;;;;5030897;28;20365;-74
2023/03/09 09:26:56;;;;;;;20.08;9.80;;;20.00;61.30;;;;;;5013173;28;20463;-74
2023/03/09 09:29:21;;;;;;;25.77;9.38;;;20.00;61.00;;;;;;5030802;28;20072;-74
2023/03/09 09:31:50;;;;;;;22.00;9.63;;;20.00;61.40;;;;;;5031704;28;20029;-74
2023/03/09 09:34:17;;;;;;;22.80;9.82;;;20.10;61.30;;;;;;5016758;28;20116;-74
2023/03/09 09:36:44;;;;;;;21.45;9.68;;;20.10;61.40;;;;;;5016386;28;20465;-73
2023/03/09 09:39:12;;;;;;;23.85;9.70;;;20.10;61.50;;;;;;5016999;28;20290;-74
2023/03/09 09:41:45;;;;;;;20.60;9.00;;;20.10;61.40;;;;;;5034324;28;20025;-74
2023/03/09 09:44:26;;;;;;;21.17;9.40;;;20.10;61.40;;;;;;5034288;28;20078;-74
2023/03/09 09:46:54;;;;;;;22.80;9.27;;;20.10;61.40;;;;;;5000122;28;20037;-74
2023/03/09 09:49:24;;;;;;;21.75;9.35;;;20.10;61.30;;;;;;5034133;28;20492;-74
2023/03/09 09:52:09;;;;;;;24.02;8.48;;;20.10;61.10;;;;;;5012322;28;20025;-74
2023/03/09 09:54:48;;;;;;;20.45;8.45;;;20.10;60.80;;;;;;5026622;28;20117;-76
2023/03/09 09:57:22;;;;;;;21.70;8.40;;;20.20;61.00;;;;;;5013597;28;20473;-72
2023/03/09 10:00:11;;;;;;;23.52;9.23;;;20.10;60.60;;;;;;5015279;28;20042;-76
2023/03/09 10:02:57;;;;;;;20.83;8.32;;;20.10;60.60;;;;;;5036231;28;20493;-75
2023/03/09 10:05:35;;;;;;;19.15;8.57;;;20.10;60.60;;;;;;5040543;28;20063;-74
2023/03/09 10:08:24;;;;;;;23.27;8.65;;;20.10;60.60;;;;;;5025504;28;20524;-74
2023/03/09 10:10:50;;;;;;;20.90;8.45;;;20.10;60.70;;;;;;5032190;28;20045;-74
2023/03/09 10:13:27;;;;;;;18.17;8.25;;;20.10;60.70;;;;;;5013366;28;21069;-73
2023/03/09 10:15:54;;;;;;;19.50;8.23;;;20.10;60.90;;;;;;5031075;28;20410;-74
2023/03/09 10:18:33;;;;;;;19.15;8.52;;;20.10;60.80;;;;;;5032638;28;20034;-73
2023/03/09 10:21:00;;;;;;;20.95;8.57;;;20.10;60.90;;;;;;5013736;28;20030;-73
2023/03/09 10:23:31;;;;;;;19.13;8.32;;;20.00;61.00;;;;;;5016122;28;20132;-73
2023/03/09 10:26:20;;;;;;;16.33;7.60;;;20.10;60.90;;;;;;5033930;28;20025;-73
2023/03/09 10:28:49;;;;;;;17.27;7.97;;;20.10;60.80;;;;;;5010698;28;20056;-73
2023/03/09 10:31:44;;;;;;;20.92;8.90;;;20.10;60.80;;;;;;5032324;28;20026;-73
2023/03/09 10:34:21;;;;;;;20.42;8.07;;;20.10;60.70;;;;;;5014945;28;20413;-73
2023/03/09 10:36:59;;;;;;;17.83;8.70;;;20.10;61.00;;;;;;5012204;28;20053;-73
2023/03/09 10:39:29;;;;;;;19.30;8.00;;;20.00;60.70;;;;;;5040092;28;20750;-74
2023/03/09 10:41:58;;;;;;;17.52;8.02;;;20.10;60.80;;;;;;5036962;28;20026;-74
2023/03/09 10:44:24;;;;;;;15.52;7.60;;;20.10;60.90;;;;;;5032455;28;20041;-74
2023/03/09 10:47:01;;;;;;;18.33;8.38;;;20.10;60.70;;;;;;5029902;28;20037;-73
2023/03/09 10:49:27;;;;;;;16.40;7.72;;;20.10;60.90;;;;;;5032151;28;20032;-74
2023/03/09 10:52:06;;;;;;;17.27;8.13;;;20.10;60.70;;;;;;5014686;28;20473;-74
2023/03/09 10:54:40;;;;;;;18.83;8.52;;;20.10;60.60;;;;;;5014732;28;20036;-74
2023/03/09 10:57:21;;;;;;;17.88;8.25;;;20.10;61.10;;;;;;5014503;28;20057;-73
2023/03/09 11:00:01;;;;;;;18.55;8.43;;;20.10;60.70;;;;;;5032124;28;20386;-73
2023/03/09 11:02:29;;;;;;;;;;;20.10;60.60;;;;;;5035563;28;20112;-73
2023/03/09 11:04:55;;;;;;;19.63;8.50;;;20.00;60.70;;;;;;5037086;28;20341;-73
2023/03/09 11:07:28;;;;;;;18.23;8.10;;;20.10;60.70;;;;;;5015776;28;20037;-74
2023/03/09 11:09:53;;;;;;;16.90;8.25;;;20.00;61.20;;;;;;5039047;28;20064;-74
2023/03/09 11:12:27;;;;;;;19.65;8.10;;;20.00;60.60;;;;;;5002374;28;20057;-74
2023/03/09 11:14:59;;;;;;;16.27;7.57;;;20.00;60.70;;;;;;5014052;28;20041;-74
2023/03/09 11:17:34;;;;;;;18.75;8.10;;;20.00;60.60;;;;;;5013851;28;20037;-75
2023/03/09 11:20:12;;;;;;;13.93;7.13;;;20.00;60.80;;;;;;5014071;28;20378;-75
2023/03/09 11:22:48;;;;;;;18.50;8.13;;;20.00;60.80;;;;;;5031851;28;20039;-75
2023/03/09 11:25:34;;;;;;;16.00;8.07;;;20.00;60.80;;;;;;5033231;28;20033;-75
2023/03/09 11:28:13;;;;;;;17.10;8.25;;;20.00;60.90;;;;;;5013910;28;20501;-75
2023/03/09 11:30:40;;;;;;;15.25;7.35;;;20.00;61.00;;;;;;5021995;28;20029;-75
2023/03/09 11:33:13;;;;;;;17.20;8.05;;;20.00;60.80;;;;;;5048818;28;20498;-75
2023/03/09 11:35:39;;;;;;;15.35;7.22;;;20.00;60.70;;;;;;5031384;28;20071;-77
2023/03/09 11:38:13;;;;;;;14.05;7.35;;;20.00;60.90;;;;;;5042298;28;20021;-77
2023/03/09 11:40:40;;;;;;;15.43;7.68;;;20.00;60.70;;;;;;5031178;28;20119;-75
2023/03/09 11:43:25;;;;;;;14.27;6.93;;;20.00;60.70;;;;;;5035084;28;20091;-75
2023/03/09 11:45:56;;;;;;;15.25;8.00;;;20.00;61.00;;;;;;5035100;28;20052;-75
2023/03/09 11:48:29;;;;;;;15.35;6.93;;;20.00;60.90;;;;;;5031365;28;20108;-74
2023/03/09 11:51:29;;;;;;;17.67;8.50;;;20.00;60.70;;;;;;5013743;28;20030;-76
2023/03/09 11:54:05;;;;;;;16.08;7.57;;;20.00;60.70;;;;;;5013445;28;20057;-76
2023/03/09 11:56:38;;;;;;;18.35;7.20;;;20.00;61.40;;;;;;4995404;28;20449;-75
2023/03/09 11:59:25;;;;;;;23.45;7.60;;;20.00;61.10;;;;;;5031741;28;20029;-75
2023/03/09 12:02:04;;;;;;;15.98;7.20;;;20.00;60.80;;;;;;5012602;28;20079;-75
2023/03/09 12:04:30;;;;;;;14.27;7.15;;;20.00;60.70;;;;;;5030742;28;20099;-76
2023/03/09 12:07:20;;;;;;;16.73;7.82;;;20.00;60.70;;;;;;5031366;28;20511;-75
2023/03/09 12:10:04;;;;;;;15.63;6.95;;;20.00;60.70;;;;;;5014066;28;20034;-75
2023/03/09 12:13:09;;;;;;;15.45;7.32;;;20.00;60.80;;;;;;5031333;28;20025;-75
2023/03/09 12:15:43;;;;;;;13.07;6.72;;;20.00;60.70;;;;;;5013192;28;20029;-74
2023/03/09 12:18:23;;;;;;;13.73;6.97;;;20.00;60.70;;;;;;5032052;28;20041;-73
2023/03/09 12:20:51;;;;;;;;;;;20.00;60.80;;;;;;4998528;28;20036;-75
2023/03/09 12:23:35;;;;;;;16.27;7.53;;;19.90;60.60;;;;;;5014002;28;19917;-74
2023/03/09 12:26:03;;;;;;;18.15;7.65;;;19.90;60.70;;;;;;5031215;28;20034;-75
2023/03/09 12:28:30;;;;;;;14.68;6.97;;;20.00;60.80;;;;;;5031306;28;20029;-74
2023/03/09 12:30:57;;;;;;;12.73;6.90;;;20.00;60.90;;;;;;5013973;28;20036;-75
2023/03/09 12:33:41;;;;;;;15.00;6.93;;;19.90;60.70;;;;;;5013628;28;20029;-74
2023/03/09 12:36:26;;;;;;;11.88;6.35;;;19.90;60.90;;;;;;5013435;28;20099;-74
2023/03/09 12:39:31;;;;;;;16.25;6.95;;;19.90;61.10;;;;;;5013830;28;20055;-75
2023/03/09 12:41:59;;;;;;;13.40;6.82;;;19.90;61.00;;;;;;5031835;28;20033;-74
2023/03/09 12:44:44;;;;;;;13.80;6.75;;;20.00;61.20;;;;;;5019375;28;20036;-75
2023/03/09 12:47:36;;;;;;;13.02;6.53;;;19.90;61.20;;;;;;5012145;28;20370;-74
2023/03/09 12:50:24;;;;;;;13.43;6.68;;;19.90;61.20;;;;;;5011679;28;20085;-75
2023/03/09 12:53:22;;;;;;;16.30;6.93;;;19.90;61.40;;;;;;5042525;28;20025;-75
2023/03/09 12:56:05;;;;;;;17.80;6.82;;;19.90;61.00;;;;;;5030973;28;20493;-75